createdAt,value
2023-03-31T00:01:04.469Z,4.4
2023-03-31T00:03:04.339Z,4.4
2023-03-31T00:05:04.753Z,4.2
2023-03-31T00:07:04.355Z,4.4
2023-03-31T00:09:05.008Z,4.2
2023-03-31T00:11:06.090Z,4.8
2023-03-31T00:13:03.962Z,4.4
2023-03-31T00:15:04.569Z,4.3
2023-03-31T00:17:03.975Z,4.4
2023-03-31T00:19:04.755Z,4.5
2023-03-31T00:21:10.059Z,4.3
2023-03-31T00:23:04.304Z,4.3
2023-03-31T00:25:04.241Z,4.6
2023-03-31T00:27:04.984Z,4.9
2023-03-31T00:29:05.289Z,4.9
2023-03-31T00:31:04.058Z,4.6
2023-03-31T00:33:03.702Z,5.1
2023-03-31T00:35:04.111Z,4.6
2023-03-31T00:37:03.919Z,4.5
2023-03-31T00:39:05.614Z,5.1
2023-03-31T00:41:04.240Z,4.9
2023-03-31T00:43:18.222Z,5
2023-03-31T00:45:22.886Z,4.8
2023-03-31T00:47:05.852Z,4.7
2023-03-31T00:49:03.253Z,4.8
2023-03-31T00:51:06.400Z,5.1
2023-03-31T00:53:10.282Z,4.3
2023-03-31T00:55:09.108Z,4.5
2023-03-31T00:57:05.061Z,4.4
2023-03-31T00:59:10.302Z,4.6
2023-03-31T01:01:04.021Z,4.5
2023-03-31T01:03:06.951Z,4.8
2023-03-31T01:05:03.046Z,4.5
2023-03-31T01:07:10.113Z,4.9
2023-03-31T01:09:03.168Z,4.9
2023-03-31T01:11:05.059Z,4.9
2023-03-31T01:13:03.828Z,4.9
2023-03-31T01:15:03.691Z,4.8
2023-03-31T01:17:03.034Z,4.9
2023-03-31T01:19:02.658Z,4.8
2023-03-31T01:21:31.724Z,5
2023-03-31T01:23:31.666Z,4.6
2023-03-31T01:25:34.465Z,4.6
2023-03-31T01:27:20.194Z,4.9
2023-03-31T01:29:12.133Z,5.1
2023-03-31T01:31:26.150Z,4.9
2023-03-31T01:33:26.262Z,5.1
2023-03-31T01:35:25.672Z,4.9
2023-03-31T01:37:21.563Z,5.4
2023-03-31T01:39:31.352Z,5.1
2023-03-31T01:41:14.168Z,4.6
2023-03-31T01:43:07.439Z,5
2023-03-31T01:45:12.609Z,5.4
2023-03-31T01:47:07.245Z,4.6
2023-03-31T01:49:12.706Z,5.2
2023-03-31T01:51:06.620Z,5.2
2023-03-31T01:53:08.646Z,5.1
2023-03-31T01:55:05.722Z,5.1
2023-03-31T01:57:11.649Z,5.3
2023-03-31T01:59:08.177Z,5.1
2023-03-31T02:01:09.068Z,5.7
2023-03-31T02:03:08.220Z,5.3
2023-03-31T02:05:09.211Z,5.7
2023-03-31T02:07:05.404Z,5.5
2023-03-31T02:09:05.794Z,5.7
2023-03-31T02:11:02.601Z,5.5
2023-03-31T02:13:03.423Z,5.7
2023-03-31T02:15:05.824Z,5.7
2023-03-31T02:17:03.565Z,6.3
2023-03-31T02:19:04.797Z,6.3
2023-03-31T02:21:01.808Z,6.3
2023-03-31T02:23:03.176Z,6.9
2023-03-31T02:25:04.714Z,6.2
2023-03-31T02:27:06.607Z,6.9
2023-03-31T02:29:02.094Z,6.5
2023-03-31T02:31:10.545Z,6.5
2023-03-31T02:33:01.330Z,6.3
2023-03-31T02:35:01.519Z,6.8
2023-03-31T02:37:01.616Z,6.9
2023-03-31T02:39:06.102Z,6.5
2023-03-31T02:41:01.035Z,6.7
2023-03-31T02:43:04.716Z,6.7
2023-03-31T02:45:02.547Z,7.1
2023-03-31T02:47:01.672Z,6.7
2023-03-31T02:49:04.777Z,6.7
2023-03-31T02:51:27.870Z,6.5
2023-03-31T02:53:09.886Z,7.2
2023-03-31T02:55:12.230Z,7.1
2023-03-31T02:57:22.511Z,6.9
2023-03-31T02:59:19.834Z,6.6
2023-03-31T03:01:12.936Z,8
2023-03-31T03:03:11.250Z,7
2023-03-31T03:05:19.984Z,7.1
2023-03-31T03:07:07.587Z,7
2023-03-31T03:09:12.568Z,7.8
2023-03-31T03:11:07.084Z,7.3
2023-03-31T03:13:09.007Z,7.9
2023-03-31T03:15:07.426Z,8.1
2023-03-31T03:17:05.837Z,8.4
2023-03-31T03:19:03.272Z,8.3
2023-03-31T03:21:00.144Z,9
2023-03-31T03:23:00.537Z,8.9
2023-03-31T03:25:00.287Z,8.8
2023-03-31T03:27:00.399Z,8.9
2023-03-31T03:28:59.881Z,8.1
2023-03-31T03:30:59.872Z,9
2023-03-31T03:32:59.946Z,8.5
2023-03-31T03:35:00.367Z,8.6
2023-03-31T03:36:59.753Z,8
2023-03-31T03:38:59.691Z,8.3
2023-03-31T03:40:59.731Z,7.9
2023-03-31T03:42:59.538Z,8.1
2023-03-31T03:44:59.499Z,7.6
2023-03-31T03:46:59.446Z,9.1
2023-03-31T03:48:59.435Z,8.6
2023-03-31T03:51:00.162Z,9
2023-03-31T03:52:59.329Z,8.2
2023-03-31T03:54:59.220Z,8.4
2023-03-31T03:56:59.505Z,8.3
2023-03-31T03:58:59.193Z,9.6
2023-03-31T04:00:59.131Z,10.2
2023-03-31T04:02:59.100Z,9.1
2023-03-31T04:04:58.989Z,9.2
2023-03-31T04:06:59.097Z,8.5
2023-03-31T04:08:58.874Z,9.8
2023-03-31T04:10:58.914Z,9.7
2023-03-31T04:12:59.365Z,8.7
2023-03-31T04:14:58.866Z,8.5
2023-03-31T04:16:58.730Z,8.9
2023-03-31T04:18:58.785Z,8.6
2023-03-31T04:20:58.836Z,9.4
2023-03-31T04:22:58.645Z,7.9
2023-03-31T04:24:58.544Z,9.4
2023-03-31T04:26:59.923Z,8.8
2023-03-31T04:28:58.517Z,8.6
2023-03-31T04:30:58.629Z,9.9
2023-03-31T04:33:00.290Z,9.7
2023-03-31T04:34:58.376Z,9.7
2023-03-31T04:36:58.278Z,9
2023-03-31T04:38:59.134Z,9.5
2023-03-31T04:40:58.593Z,8.7
2023-03-31T04:42:58.161Z,8.8
2023-03-31T04:44:58.126Z,9.8
2023-03-31T04:46:58.464Z,8.9
2023-03-31T04:48:58.060Z,8.4
2023-03-31T04:50:58.060Z,8.9
2023-03-31T04:52:58.046Z,9.2
2023-03-31T04:54:57.888Z,9.4
2023-03-31T04:56:58.053Z,9.6
2023-03-31T04:58:57.835Z,9.4
2023-03-31T05:00:58.360Z,10.2
2023-03-31T05:02:59.255Z,9.6
2023-03-31T05:04:57.635Z,10
2023-03-31T05:06:57.928Z,10.3
2023-03-31T05:08:57.665Z,9
2023-03-31T05:10:57.638Z,9.6
2023-03-31T05:12:57.885Z,9.8
2023-03-31T05:14:57.472Z,10
2023-03-31T05:16:57.477Z,11.1
2023-03-31T05:18:57.411Z,13
2023-03-31T05:20:57.371Z,11.5
2023-03-31T05:22:57.291Z,10.8
2023-03-31T05:24:57.562Z,11.2
2023-03-31T05:26:57.226Z,9.9
2023-03-31T05:28:57.165Z,10.8
2023-03-31T05:30:59.105Z,10.3
2023-03-31T05:32:57.112Z,11.8
2023-03-31T05:34:57.024Z,12.4
2023-03-31T05:36:57.213Z,11.9
2023-03-31T05:38:56.962Z,11.5
2023-03-31T05:40:57.225Z,10.2
2023-03-31T05:42:57.022Z,11.7
2023-03-31T05:44:56.908Z,12.2
2023-03-31T05:46:56.959Z,11.6
2023-03-31T05:48:56.750Z,11.5
2023-03-31T05:50:57.026Z,12.1
2023-03-31T05:52:56.579Z,11.9
2023-03-31T05:54:56.649Z,10.9
2023-03-31T05:56:56.507Z,11.3
2023-03-31T05:58:58.632Z,12.1
2023-03-31T06:01:06.041Z,11.8
2023-03-31T06:02:56.536Z,11.9
2023-03-31T06:04:56.339Z,10.8
2023-03-31T06:06:56.526Z,10.4
2023-03-31T06:08:56.334Z,10.3
2023-03-31T06:10:56.395Z,11.2
2023-03-31T06:12:56.317Z,9.6
2023-03-31T06:14:56.193Z,9.1
2023-03-31T06:16:57.852Z,9.1
2023-03-31T06:18:56.392Z,9.6
2023-03-31T06:20:57.098Z,9
2023-03-31T06:22:56.131Z,10.2
2023-03-31T06:24:56.110Z,9.7
2023-03-31T06:26:56.015Z,9.5
2023-03-31T06:28:56.695Z,9
2023-03-31T06:31:05.508Z,8.7
2023-03-31T06:32:56.093Z,9.3
2023-03-31T06:34:55.967Z,9.1
2023-03-31T06:36:56.173Z,7.4
2023-03-31T06:38:55.872Z,8.7
2023-03-31T06:40:56.001Z,9.3
2023-03-31T06:42:55.895Z,8.9
2023-03-31T06:44:56.001Z,9.3
2023-03-31T06:46:55.809Z,8.2
2023-03-31T06:48:55.860Z,9.2
2023-03-31T06:50:59.321Z,9.4
2023-03-31T06:52:55.755Z,9.9
2023-03-31T06:54:55.777Z,9.7
2023-03-31T06:56:55.835Z,9.2
2023-03-31T06:58:55.959Z,10.2
2023-03-31T07:00:55.820Z,10.2
2023-03-31T07:02:55.875Z,9.4
2023-03-31T07:04:55.768Z,9.7
2023-03-31T07:06:57.611Z,10.2
2023-03-31T07:08:55.726Z,9.9
2023-03-31T07:10:58.113Z,9.3
2023-03-31T07:12:56.182Z,9.6
2023-03-31T07:14:55.871Z,9.5
2023-03-31T07:16:55.654Z,9.8
2023-03-31T07:18:55.591Z,9.8
2023-03-31T07:20:55.520Z,8.5
2023-03-31T07:22:55.985Z,8.8
2023-03-31T07:24:55.716Z,9.2
2023-03-31T07:26:55.596Z,9.9
2023-03-31T07:28:55.559Z,9.7
2023-03-31T07:30:55.526Z,9
2023-03-31T07:32:55.652Z,9.5
2023-03-31T07:34:55.400Z,9.1
2023-03-31T07:36:55.989Z,9
2023-03-31T07:38:55.648Z,9.8
2023-03-31T07:41:07.684Z,9.4
2023-03-31T07:42:55.800Z,7.7
2023-03-31T07:44:55.364Z,8.7
2023-03-31T07:46:55.353Z,8.9
2023-03-31T07:48:56.354Z,9.6
2023-03-31T07:51:01.033Z,9.1
2023-03-31T07:52:55.489Z,9.5
2023-03-31T07:54:55.256Z,9.7
2023-03-31T07:56:55.259Z,10
2023-03-31T07:58:57.587Z,9.5
2023-03-31T08:00:55.372Z,9.4
2023-03-31T08:02:55.109Z,10
2023-03-31T08:04:55.083Z,9.6
2023-03-31T08:06:55.647Z,9.7
2023-03-31T08:08:55.256Z,10.2
2023-03-31T08:10:55.138Z,10.2
2023-03-31T08:12:55.144Z,10.4
2023-03-31T08:14:55.021Z,10.3
2023-03-31T08:16:54.949Z,9.9
2023-03-31T08:18:54.978Z,9.2
2023-03-31T08:20:55.895Z,9.2
2023-03-31T08:22:54.942Z,9.4
2023-03-31T08:24:55.006Z,9.4
2023-03-31T08:26:54.881Z,9.1
2023-03-31T08:28:57.317Z,9
2023-03-31T08:30:54.834Z,9.1
2023-03-31T08:32:54.889Z,9.4
2023-03-31T08:34:54.819Z,9.4
2023-03-31T08:36:54.891Z,9.1
2023-03-31T08:38:55.224Z,9.1
2023-03-31T08:40:59.142Z,7.6
2023-03-31T08:43:00.007Z,7.9
2023-03-31T08:44:59.710Z,8.1
2023-03-31T08:46:57.080Z,10.3
2023-03-31T08:48:56.844Z,8.8
2023-03-31T08:51:00.116Z,8.3
2023-03-31T08:53:03.489Z,7.6
2023-03-31T08:54:57.906Z,7.8
2023-03-31T08:56:54.779Z,8.7
2023-03-31T08:58:54.833Z,7.6
2023-03-31T09:01:01.255Z,7.2
2023-03-31T09:03:00.069Z,6.6
2023-03-31T09:05:08.734Z,7.3
2023-03-31T09:07:01.913Z,7.8
2023-03-31T09:09:01.204Z,8.1
2023-03-31T09:10:58.810Z,6.4
2023-03-31T09:13:01.902Z,6.4
2023-03-31T09:14:59.460Z,7.8
2023-03-31T09:17:07.171Z,7
2023-03-31T09:18:59.695Z,7.6
2023-03-31T09:21:01.946Z,7.4
2023-03-31T09:23:00.819Z,7.5
2023-03-31T09:25:00.528Z,6.5
2023-03-31T09:26:57.956Z,6.2
2023-03-31T09:28:57.100Z,6.9
2023-03-31T09:30:55.063Z,6.2
2023-03-31T09:33:04.452Z,6.1
2023-03-31T09:34:59.108Z,6.7
2023-03-31T09:36:54.623Z,7
2023-03-31T09:38:54.486Z,7
2023-03-31T09:40:54.685Z,6.9
2023-03-31T09:42:58.655Z,6.7
2023-03-31T09:44:54.457Z,7.9
2023-03-31T09:46:55.029Z,6.3
2023-03-31T09:48:59.309Z,6.6
2023-03-31T09:50:59.217Z,7.5
2023-03-31T09:52:56.381Z,6.9
2023-03-31T09:54:57.549Z,7.1
2023-03-31T09:56:55.177Z,6.9
2023-03-31T09:59:01.049Z,7.1
2023-03-31T10:01:02.076Z,6
2023-03-31T10:02:55.514Z,6.1
2023-03-31T10:04:54.288Z,7.1
2023-03-31T10:06:55.152Z,6.8
2023-03-31T10:08:56.737Z,6.3
2023-03-31T10:10:56.095Z,6
2023-03-31T10:12:54.266Z,5.5
2023-03-31T10:15:03.293Z,6.7
2023-03-31T10:16:56.139Z,6.5
2023-03-31T10:18:54.305Z,6.9
2023-03-31T10:20:58.199Z,6.9
2023-03-31T10:22:54.426Z,6.9
2023-03-31T10:25:03.561Z,6.2
2023-03-31T10:26:56.444Z,6
2023-03-31T10:28:54.664Z,6
2023-03-31T10:30:55.870Z,6.7
2023-03-31T10:32:54.901Z,7.7
2023-03-31T10:34:55.212Z,7.4
2023-03-31T10:36:53.840Z,7.4
2023-03-31T10:38:55.134Z,7.5
2023-03-31T10:40:55.942Z,9.1
2023-03-31T10:43:02.370Z,7.6
2023-03-31T10:45:16.321Z,7.7
2023-03-31T10:46:53.889Z,8.3
2023-03-31T10:48:53.794Z,7.1
2023-03-31T10:50:54.455Z,7.3
2023-03-31T10:53:02.537Z,7.6
2023-03-31T10:54:57.297Z,8.4
2023-03-31T10:56:55.565Z,8.5
2023-03-31T10:59:07.253Z,9.7
2023-03-31T11:01:07.465Z,8.5
2023-03-31T11:03:18.226Z,8.6
2023-03-31T11:05:03.781Z,8.6
2023-03-31T11:07:00.819Z,8.6
2023-03-31T11:09:07.068Z,8.9
2023-03-31T11:11:07.937Z,7.4
2023-03-31T11:12:58.234Z,7.6
2023-03-31T11:15:02.125Z,8.2
2023-03-31T11:17:00.266Z,8.9
2023-03-31T11:19:05.239Z,9.8
2023-03-31T11:21:01.768Z,9.3
2023-03-31T11:23:02.292Z,9.4
2023-03-31T11:25:11.094Z,10.3
2023-03-31T11:27:00.907Z,10.5
2023-03-31T11:29:03.956Z,9.6
2023-03-31T11:31:04.337Z,9
2023-03-31T11:33:05.614Z,9.8
2023-03-31T11:35:09.727Z,10.6
2023-03-31T11:37:11.182Z,12.2
2023-03-31T11:39:02.070Z,11.4
2023-03-31T11:41:01.344Z,10.8
2023-03-31T11:42:58.408Z,10.2
2023-03-31T11:44:58.320Z,10.4
2023-03-31T11:46:57.008Z,10.3
2023-03-31T11:48:59.119Z,12
2023-03-31T11:50:54.269Z,11.3
2023-03-31T11:52:59.206Z,9.7
2023-03-31T11:54:57.513Z,9.5
2023-03-31T11:56:54.679Z,10.5
2023-03-31T11:58:57.198Z,10.1
2023-03-31T12:00:57.286Z,11.5
2023-03-31T12:02:58.714Z,11.1
2023-03-31T12:04:54.951Z,11
2023-03-31T12:07:02.275Z,11.5
2023-03-31T12:09:04.172Z,11.7
2023-03-31T12:10:59.656Z,11.8
2023-03-31T12:13:00.548Z,11.3
2023-03-31T12:14:56.619Z,12.2
2023-03-31T12:16:55.765Z,11.8
2023-03-31T12:19:01.970Z,11.8
2023-03-31T12:20:57.265Z,12.3
2023-03-31T12:22:54.884Z,11.9
2023-03-31T12:24:53.472Z,11.5
2023-03-31T12:27:02.238Z,11.4
2023-03-31T12:28:57.666Z,9.6
2023-03-31T12:30:56.605Z,9.1
2023-03-31T12:32:58.290Z,9.7
2023-03-31T12:34:59.489Z,9.1
2023-03-31T12:37:07.441Z,9.7
2023-03-31T12:39:05.835Z,9.8
2023-03-31T12:41:03.025Z,9.8
2023-03-31T12:43:12.123Z,10.8
2023-03-31T12:44:57.794Z,9.8
2023-03-31T12:47:10.146Z,10
2023-03-31T12:49:04.850Z,9.8
2023-03-31T12:51:05.913Z,9.8
2023-03-31T12:52:58.754Z,9.3
2023-03-31T12:55:07.436Z,9
2023-03-31T12:57:13.791Z,8.8
2023-03-31T12:58:52.587Z,9.9
2023-03-31T13:01:03.985Z,11.3
2023-03-31T13:03:21.894Z,10.2
2023-03-31T13:04:52.475Z,12.8
2023-03-31T13:06:54.530Z,10.6
2023-03-31T13:08:55.480Z,8.2
2023-03-31T13:10:57.199Z,8
2023-03-31T13:13:03.538Z,8.3
2023-03-31T13:14:55.130Z,8.7
2023-03-31T13:17:07.977Z,8.4
2023-03-31T13:18:53.839Z,8
2023-03-31T13:20:58.655Z,8.2
2023-03-31T13:23:01.266Z,8.8
2023-03-31T13:24:52.096Z,8.9
2023-03-31T13:26:54.204Z,7.7
2023-03-31T13:29:18.032Z,7.5
2023-03-31T13:30:55.161Z,8.2
2023-03-31T13:33:03.609Z,7.7
2023-03-31T13:34:58.564Z,7.9
2023-03-31T13:37:03.433Z,8
2023-03-31T13:39:05.692Z,7.7
2023-03-31T13:41:02.300Z,7.8
2023-03-31T13:43:07.628Z,7.5
2023-03-31T13:45:09.399Z,7.7
2023-03-31T13:47:10.109Z,7.6
2023-03-31T13:49:00.265Z,7.3
2023-03-31T13:51:14.867Z,7.7
2023-03-31T13:52:59.942Z,7.7
2023-03-31T13:55:20.334Z,7.6
2023-03-31T13:57:09.715Z,7.9
2023-03-31T13:59:12.339Z,7.8
2023-03-31T14:01:09.882Z,8.2
2023-03-31T14:03:12.295Z,9.3
2023-03-31T14:05:20.976Z,8.9
2023-03-31T14:06:56.178Z,8.6
2023-03-31T14:08:54.705Z,7.7
2023-03-31T14:10:51.841Z,7.9
2023-03-31T14:12:51.515Z,7.7
2023-03-31T14:14:53.716Z,7.5
2023-03-31T14:16:55.314Z,7
2023-03-31T14:19:01.797Z,6.8
2023-03-31T14:21:10.061Z,7.5
2023-03-31T14:23:02.768Z,7.6
2023-03-31T14:25:04.172Z,6.9
2023-03-31T14:27:03.343Z,7
2023-03-31T14:29:09.934Z,7.3
2023-03-31T14:31:02.951Z,6.8
2023-03-31T14:33:04.770Z,7.9
2023-03-31T14:35:03.710Z,7.8
2023-03-31T14:36:58.360Z,7.4
2023-03-31T14:38:52.288Z,8.6
2023-03-31T14:40:53.450Z,8.7
2023-03-31T14:42:52.384Z,7.2
2023-03-31T14:44:56.585Z,7
2023-03-31T14:46:51.822Z,6.7
2023-03-31T14:48:52.077Z,7.8
2023-03-31T14:50:58.493Z,7.1
2023-03-31T14:52:54.784Z,7.1
2023-03-31T14:54:53.017Z,7.4
2023-03-31T14:56:55.371Z,7.2
2023-03-31T14:58:53.760Z,8.3
2023-03-31T15:02:53.030Z,7.5
2023-03-31T15:04:51.305Z,7.5
2023-03-31T15:06:53.721Z,7.6
2023-03-31T15:08:57.097Z,8.3
2023-03-31T15:11:02.353Z,8.1
2023-03-31T15:12:54.048Z,8.4
2023-03-31T15:14:55.316Z,7.5
2023-03-31T15:16:51.917Z,6
2023-03-31T15:18:55.139Z,8.9
2023-03-31T15:20:52.462Z,7.5
2023-03-31T15:22:54.901Z,7.9
2023-03-31T15:24:54.490Z,7.8
2023-03-31T15:26:57.670Z,9.4
2023-03-31T15:28:54.499Z,7.5
2023-03-31T15:30:59.892Z,7
2023-03-31T15:32:53.177Z,8
2023-03-31T15:34:52.644Z,8.3
2023-03-31T15:36:54.136Z,6.1
2023-03-31T15:38:58.225Z,6.5
2023-03-31T15:40:56.075Z,6.6
2023-03-31T15:43:06.220Z,6.4
2023-03-31T15:44:56.539Z,6.2
2023-03-31T15:46:59.576Z,6
2023-03-31T15:48:52.733Z,5.7
2023-03-31T15:50:51.798Z,6
2023-03-31T15:52:53.399Z,6
2023-03-31T15:54:52.069Z,5.5
2023-03-31T15:56:51.038Z,6.5
2023-03-31T15:58:59.746Z,5.6
2023-03-31T16:00:53.302Z,6
2023-03-31T16:02:50.898Z,6
2023-03-31T16:04:57.690Z,5.2
2023-03-31T16:06:56.562Z,6.2
2023-03-31T16:08:59.748Z,6.1
2023-03-31T16:11:02.061Z,6.1
2023-03-31T16:12:57.239Z,6.9
2023-03-31T16:14:56.820Z,6.6
2023-03-31T16:16:56.273Z,6.8
2023-03-31T16:18:53.723Z,7.2
2023-03-31T16:20:55.736Z,6.6
2023-03-31T16:22:55.107Z,6.8
2023-03-31T16:24:51.913Z,7.4
2023-03-31T16:26:51.740Z,7.3
2023-03-31T16:28:54.028Z,7.3
2023-03-31T16:30:52.144Z,7.5
2023-03-31T16:33:07.357Z,7.7
2023-03-31T16:34:59.431Z,7.1
2023-03-31T16:36:51.580Z,7.1
2023-03-31T16:38:53.916Z,7.6
2023-03-31T16:40:53.885Z,7.7
2023-03-31T16:43:06.558Z,7.2
2023-03-31T16:45:09.593Z,7.6
2023-03-31T16:46:55.142Z,7.9
2023-03-31T16:48:51.990Z,7.6
2023-03-31T16:50:54.259Z,7.8
2023-03-31T16:52:52.298Z,8.3
2023-03-31T16:54:52.141Z,8.5
2023-03-31T16:56:51.408Z,7.8
2023-03-31T16:58:51.905Z,7.5
2023-03-31T17:00:52.418Z,7.6
2023-03-31T17:02:53.526Z,7.8
2023-03-31T17:04:54.226Z,7.6
2023-03-31T17:06:54.032Z,7.8
2023-03-31T17:08:51.679Z,8.5
2023-03-31T17:10:55.788Z,7.5
2023-03-31T17:12:50.926Z,8.5
2023-03-31T17:14:50.999Z,8.6
2023-03-31T17:16:50.667Z,8.8
2023-03-31T17:18:51.405Z,9.1
2023-03-31T17:20:51.015Z,9.1
2023-03-31T17:22:53.902Z,8.7
2023-03-31T17:24:54.451Z,8.4
2023-03-31T17:26:53.437Z,8.6
2023-03-31T17:28:54.101Z,8.4
2023-03-31T17:30:50.908Z,8.3
2023-03-31T17:32:52.192Z,8.5
2023-03-31T17:34:52.371Z,8.4
2023-03-31T17:36:50.775Z,8.9
2023-03-31T17:38:51.475Z,9.2
2023-03-31T17:40:51.505Z,8.2
2023-03-31T17:42:51.225Z,8.5
2023-03-31T17:44:52.635Z,8.8
2023-03-31T17:46:53.213Z,8.5
2023-03-31T17:48:52.561Z,8.5
2023-03-31T17:50:51.306Z,8.2
2023-03-31T17:52:53.288Z,8
2023-03-31T17:54:50.876Z,8.8
2023-03-31T17:56:51.768Z,9.6
2023-03-31T17:58:51.828Z,9.6
2023-03-31T18:00:50.870Z,8.5
2023-03-31T18:02:51.695Z,8.8
2023-03-31T18:04:51.424Z,9.1
2023-03-31T18:06:49.936Z,9.2
2023-03-31T18:08:51.175Z,9.7
2023-03-31T18:10:55.104Z,9.2
2023-03-31T18:12:49.730Z,9.1
2023-03-31T18:14:49.511Z,9.1
2023-03-31T18:16:50.921Z,8.6
2023-03-31T18:18:53.167Z,9.7
2023-03-31T18:20:53.117Z,8.8
2023-03-31T18:22:51.477Z,8.9
2023-03-31T18:24:51.165Z,8.4
2023-03-31T18:26:50.627Z,9.2
2023-03-31T18:28:51.320Z,9.1
2023-03-31T18:30:51.122Z,9.3
2023-03-31T18:32:49.701Z,9.6
2023-03-31T18:34:52.476Z,10.5
2023-03-31T18:36:52.207Z,10.8
2023-03-31T18:38:50.610Z,11.5
2023-03-31T18:40:51.567Z,11.3
2023-03-31T18:42:49.228Z,12
2023-03-31T18:44:51.190Z,12
2023-03-31T18:46:51.573Z,10
2023-03-31T18:48:48.702Z,9.7
2023-03-31T18:50:49.474Z,8.9
2023-03-31T18:52:50.815Z,7.8
2023-03-31T18:54:50.264Z,8
2023-03-31T18:56:52.687Z,8.1
2023-03-31T18:58:50.579Z,7.5
2023-03-31T19:00:50.667Z,8
2023-03-31T19:02:46.616Z,7.7
2023-03-31T19:04:47.457Z,7.3
2023-03-31T19:06:48.363Z,7.4
2023-03-31T19:08:45.996Z,7.1
2023-03-31T19:10:48.014Z,7.4
2023-03-31T19:12:50.706Z,7.5
2023-03-31T19:14:47.068Z,7.6
2023-03-31T19:16:48.099Z,7.4
2023-03-31T19:18:48.272Z,7.5
2023-03-31T19:20:47.437Z,7.3
2023-03-31T19:22:49.649Z,8
2023-03-31T19:24:47.592Z,8.1
2023-03-31T19:26:46.012Z,8.1
2023-03-31T19:28:46.951Z,7.3
2023-03-31T19:30:48.110Z,7
2023-03-31T19:32:48.333Z,7.7
2023-03-31T19:34:47.721Z,7.5
2023-03-31T19:36:46.098Z,8.3
2023-03-31T19:38:47.842Z,8.4
2023-03-31T19:40:45.482Z,7.5
2023-03-31T19:42:48.158Z,7.9
2023-03-31T19:44:45.409Z,8.1
2023-03-31T19:46:47.648Z,8
2023-03-31T19:48:45.689Z,7.4
2023-03-31T19:50:46.479Z,7.9
2023-03-31T19:52:46.761Z,8.4
2023-03-31T19:54:45.887Z,9
2023-03-31T19:56:45.502Z,8.7
2023-03-31T19:58:45.314Z,8.2
2023-03-31T20:00:46.600Z,8
2023-03-31T20:02:47.041Z,7.9
2023-03-31T20:04:48.684Z,7.5
2023-03-31T20:06:48.360Z,7.3
2023-03-31T20:08:44.973Z,7.2
2023-03-31T20:10:49.090Z,7
2023-03-31T20:12:44.841Z,7.1
2023-03-31T20:14:46.458Z,7.1
2023-03-31T20:16:46.216Z,7
2023-03-31T20:18:45.925Z,7.6
2023-03-31T20:20:44.673Z,7.5
2023-03-31T20:22:45.048Z,7.4
2023-03-31T20:24:44.743Z,6.9
2023-03-31T20:26:45.123Z,6.9
2023-03-31T20:28:45.720Z,7
2023-03-31T20:30:45.124Z,7.1
2023-03-31T20:32:45.454Z,7.5
2023-03-31T20:34:44.492Z,6.9
2023-03-31T20:36:46.126Z,7
2023-03-31T20:38:46.576Z,7.2
2023-03-31T20:40:44.872Z,6.9
2023-03-31T20:42:44.420Z,7.1
2023-03-31T20:44:44.450Z,7.3
2023-03-31T20:46:44.598Z,7.3
2023-03-31T20:48:45.764Z,8.2
2023-03-31T20:50:44.352Z,7.8
2023-03-31T20:52:44.136Z,7.8
2023-03-31T20:54:44.161Z,7.2
2023-03-31T20:56:44.113Z,7.4
2023-03-31T20:58:44.731Z,6.8
2023-03-31T21:00:44.152Z,6.4
2023-03-31T21:02:43.914Z,6.6
2023-03-31T21:04:45.039Z,6.3
2023-03-31T21:06:45.903Z,5.9
2023-03-31T21:08:45.710Z,5.7
2023-03-31T21:10:45.407Z,5.8
2023-03-31T21:12:43.827Z,5.8
2023-03-31T21:14:43.847Z,5.8
2023-03-31T21:16:44.671Z,5.9
2023-03-31T21:18:43.819Z,5.3
2023-03-31T21:20:49.573Z,5.8
2023-03-31T21:22:43.743Z,5.7
2023-03-31T21:24:43.700Z,6
2023-03-31T21:26:43.722Z,6
2023-03-31T21:28:44.565Z,5.6
2023-03-31T21:30:50.699Z,5.7
2023-03-31T21:32:43.742Z,5.8
2023-03-31T21:34:43.541Z,6.3
2023-03-31T21:36:43.538Z,6.3
2023-03-31T21:38:44.567Z,7
2023-03-31T21:40:43.601Z,6.7
2023-03-31T21:42:43.577Z,6.7
2023-03-31T21:44:43.440Z,7.4
2023-03-31T21:46:43.881Z,8.4
2023-03-31T21:48:43.463Z,7.5
2023-03-31T21:50:44.950Z,7.5
2023-03-31T21:52:43.298Z,6.7
2023-03-31T21:54:43.451Z,6.8
2023-03-31T21:56:43.249Z,6.9
2023-03-31T21:58:43.212Z,6.2
2023-03-31T22:00:43.234Z,7.1
2023-03-31T22:02:43.162Z,6.4
2023-03-31T22:04:43.141Z,6.6
2023-03-31T22:06:43.182Z,6.5
2023-03-31T22:08:43.350Z,6.1
2023-03-31T22:10:47.531Z,5.1
2023-03-31T22:12:42.997Z,5.2
2023-03-31T22:14:42.920Z,5.2
2023-03-31T22:16:43.019Z,5.3
2023-03-31T22:18:43.410Z,5.4
2023-03-31T22:20:43.607Z,5.4
2023-03-31T22:22:42.845Z,5.2
2023-03-31T22:24:42.918Z,5.6
2023-03-31T22:26:42.816Z,5.8
2023-03-31T22:28:42.799Z,5.5
2023-03-31T22:30:43.028Z,5.3
2023-03-31T22:32:42.830Z,6
2023-03-31T22:34:42.741Z,5.4
2023-03-31T22:36:42.675Z,6.7
2023-03-31T22:38:42.773Z,6.3
2023-03-31T22:40:42.924Z,5.7
2023-03-31T22:42:42.763Z,5.6
2023-03-31T22:44:42.588Z,5.9
2023-03-31T22:46:43.209Z,5.5
2023-03-31T22:48:42.723Z,5.6
2023-03-31T22:50:42.475Z,5.5
2023-03-31T22:52:42.486Z,5.4
2023-03-31T22:54:42.574Z,4.7
2023-03-31T22:56:42.943Z,5.1
2023-03-31T22:58:42.305Z,5
2023-03-31T23:00:42.326Z,4.7
2023-03-31T23:02:42.406Z,4.5
2023-03-31T23:04:42.235Z,4.3
2023-03-31T23:06:42.161Z,4.5
2023-03-31T23:08:42.146Z,4.2
2023-03-31T23:10:42.179Z,4.7
2023-03-31T23:12:42.301Z,5
2023-03-31T23:14:41.973Z,28.7
2023-03-31T23:16:42.333Z,35.9
2023-03-31T23:18:42.185Z,75
2023-03-31T23:20:42.472Z,42
2023-03-31T23:22:41.837Z,36.9
2023-03-31T23:24:41.934Z,30.6
2023-03-31T23:26:41.757Z,26.5
2023-03-31T23:28:41.894Z,24.1
2023-03-31T23:30:41.695Z,20
2023-03-31T23:32:41.568Z,15.9
2023-03-31T23:34:41.893Z,10.7
2023-03-31T23:36:41.685Z,6.6
2023-03-31T23:38:42.029Z,7
2023-03-31T23:40:41.525Z,6.8
2023-03-31T23:42:41.477Z,6
2023-03-31T23:44:41.425Z,43.4
2023-03-31T23:46:41.307Z,64
2023-03-31T23:48:41.377Z,38.6
2023-03-31T23:50:41.271Z,15.1
2023-03-31T23:52:41.341Z,8.2
2023-03-31T23:54:41.299Z,10.7
2023-03-31T23:56:41.344Z,11.1
2023-03-31T23:58:41.295Z,12.7
